Terminal Aerodrome Forecast
Issued by NWS Shreveport, LA

Home | Current Version | Previous Version | Text Only | Print | Product List | Glossary On
Versions: 1 2 3 4 5 6 7 8 9 10 11 12 13 14 15
000
FTUS44 KSHV 121700 RRA
TAFLFK
TAF
KLFK 121742Z 1218/1318 VRB05KT P6SM SCT040
     FM122000 14006KT P6SM BKN045
     FM130100 15004KT P6SM FEW050 SCT250
     FM130600 00000KT P6SM SCT250
     FM131200 00000KT 4SM BR SKC
      TEMPO 1313/1314 6SM BR
     FM131400 25004KT P6SM SKC=

USA.gov is the U.S. government's official web portal to all federal, state and local government web resources and services.